Terminal Aerodrome Forecast
Issued by NWS Indianapolis, IN

Home | Current Version | Previous Version | Text Only | Print | Product List | Glossary On
Versions: 1 2 3 4 5 6 7 8 9 10 11 12 13 14 15 16 17 18 19 20 21 22 23 24 25 26 27 28 29
000
FTUS43 KIND 062000 AAA
TAFIND
TAF AMD
KIND 062006Z 0620/0724 20011KT P6SM SCT040
     FM070000 20008KT P6SM BKN250
     FM070700 21008KT P6SM SCT050 BKN150
     FM071300 22010KT P6SM VCSH SCT025 BKN050
     FM071800 24011KT 5SM BR VCSH BKN025=

USA.gov is the U.S. government's official web portal to all federal, state and local government web resources and services.